createdAt,value
2023-02-19T00:01:51.658Z,1.40
2023-02-19T00:04:08.190Z,1.60
2023-02-19T00:06:21.820Z,2.50
2023-02-19T00:08:36.001Z,2.90
2023-02-19T00:10:52.156Z,3.40
2023-02-19T00:13:06.324Z,2.40
2023-02-19T00:15:19.447Z,3.30
2023-02-19T00:17:33.994Z,3.70
2023-02-19T00:19:47.389Z,4.10
2023-02-19T00:22:00.509Z,2.20
2023-02-19T00:24:14.904Z,8.20
2023-02-19T00:26:28.847Z,3.90
2023-02-19T00:28:42.051Z,4.80
2023-02-19T00:30:54.895Z,4.00
2023-02-19T00:33:08.401Z,3.90
2023-02-19T00:35:21.147Z,4.60
2023-02-19T00:37:33.711Z,2.80
2023-02-19T00:39:46.225Z,2.90
2023-02-19T00:42:00.481Z,2.60
2023-02-19T00:44:18.066Z,4.70
2023-02-19T00:46:36.145Z,6.00
2023-02-19T00:48:48.982Z,4.40
2023-02-19T00:51:01.611Z,3.10
2023-02-19T00:53:14.579Z,2.40
2023-02-19T00:55:27.603Z,4.70
2023-02-19T00:57:40.708Z,5.50
2023-02-19T00:59:53.819Z,4.00
2023-02-19T01:02:07.763Z,3.60
2023-02-19T01:04:21.209Z,6.20
2023-02-19T01:06:34.100Z,3.50
2023-02-19T01:08:47.672Z,4.60
2023-02-19T01:11:01.609Z,5.70
2023-02-19T01:13:14.369Z,5.80
2023-02-19T01:15:27.276Z,3.90
2023-02-19T01:17:41.183Z,3.60
2023-02-19T01:19:54.077Z,5.10
2023-02-19T01:22:06.619Z,2.60
2023-02-19T01:24:19.749Z,3.50
2023-02-19T01:26:39.374Z,2.50
2023-02-19T01:28:53.782Z,2.80
2023-02-19T01:31:11.070Z,7.40
2023-02-19T01:33:25.414Z,8.10
2023-02-19T01:35:41.721Z,6.70
2023-02-19T01:37:55.734Z,7.70
2023-02-19T01:40:09.242Z,8.20
2023-02-19T01:42:26.811Z,5.60
2023-02-19T01:45:28.205Z,7.50
2023-02-19T01:47:42.318Z,5.90
2023-02-19T01:50:01.801Z,6.90
2023-02-19T01:52:19.278Z,7.60
2023-02-19T01:54:35.691Z,7.80
2023-02-19T01:56:51.828Z,10.10
2023-02-19T01:59:06.606Z,3.50
2023-02-19T02:01:20.067Z,5.30
2023-02-19T02:03:36.070Z,7.80
2023-02-19T02:05:53.669Z,7.30
2023-02-19T02:08:25.070Z,6.50
2023-02-19T02:10:40.301Z,7.50
2023-02-19T02:12:56.149Z,8.60
2023-02-19T02:15:13.313Z,8.50
2023-02-19T02:17:33.442Z,10.40
2023-02-19T02:20:21.284Z,11.10
2023-02-19T02:22:38.308Z,14.10
2023-02-19T02:25:30.854Z,12.10
2023-02-19T02:27:57.688Z,9.60
2023-02-19T02:30:41.437Z,11.80
2023-02-19T02:33:05.193Z,15.90
2023-02-19T02:35:22.009Z,13.10
2023-02-19T02:37:39.006Z,7.90
2023-02-19T02:39:54.407Z,10.90
2023-02-19T02:42:25.327Z,11.40
2023-02-19T02:45:04.560Z,10.10
2023-02-19T02:47:33.102Z,8.40
2023-02-19T02:50:06.281Z,11.60
2023-02-19T02:52:40.061Z,9.90
2023-02-19T02:55:09.817Z,13.00
2023-02-19T02:57:24.160Z,14.70
2023-02-19T02:59:43.773Z,11.40
2023-02-19T03:02:15.677Z,10.50
2023-02-19T03:04:32.888Z,15.50
2023-02-19T03:06:50.284Z,13.40
2023-02-19T03:09:10.064Z,17.40
2023-02-19T03:11:39.267Z,17.60
2023-02-19T03:14:19.820Z,14.80
2023-02-19T03:16:51.419Z,9.50
2023-02-19T03:19:26.618Z,15.50
2023-02-19T03:21:44.356Z,15.00
2023-02-19T03:24:13.477Z,16.10
2023-02-19T03:26:29.008Z,13.60
2023-02-19T03:29:00.335Z,19.10
2023-02-19T03:31:19.254Z,20.10
2023-02-19T03:33:35.342Z,13.30
2023-02-19T03:35:54.630Z,16.40
2023-02-19T03:38:12.720Z,10.70
2023-02-19T03:40:30.000Z,11.80
2023-02-19T03:42:55.845Z,14.00
2023-02-19T03:45:37.823Z,20.20
2023-02-19T03:47:57.886Z,21.00
2023-02-19T03:50:18.766Z,15.40
2023-02-19T03:52:42.480Z,17.70
2023-02-19T03:55:01.819Z,17.40
2023-02-19T03:57:24.221Z,13.70
2023-02-19T03:59:46.884Z,14.90
2023-02-19T04:02:04.676Z,16.10
2023-02-19T04:04:22.257Z,19.90
2023-02-19T04:06:37.423Z,26.30
2023-02-19T04:08:55.832Z,13.50
2023-02-19T04:11:10.079Z,21.90
2023-02-19T04:13:30.878Z,25.40
2023-02-19T04:15:48.472Z,19.30
2023-02-19T04:18:04.190Z,22.80
2023-02-19T04:20:20.537Z,16.60
2023-02-19T04:22:34.514Z,13.20
2023-02-19T04:24:51.197Z,17.40
2023-02-19T04:27:04.552Z,17.80
2023-02-19T04:29:17.607Z,16.60
2023-02-19T04:31:36.211Z,18.00
2023-02-19T04:33:51.313Z,23.60
2023-02-19T04:36:05.877Z,18.20
2023-02-19T04:38:19.388Z,18.10
2023-02-19T04:40:32.346Z,15.80
2023-02-19T04:42:45.986Z,18.90
2023-02-19T04:45:00.036Z,18.40
2023-02-19T04:47:13.608Z,20.40
2023-02-19T04:49:27.403Z,18.70
2023-02-19T04:51:40.668Z,16.50
2023-02-19T04:53:55.112Z,32.50
2023-02-19T04:56:14.370Z,19.80
2023-02-19T04:58:28.199Z,19.90
2023-02-19T05:00:41.431Z,17.80
2023-02-19T05:02:54.428Z,15.60
2023-02-19T05:05:07.583Z,25.10
2023-02-19T05:07:23.194Z,19.90
2023-02-19T05:09:36.349Z,22.20
2023-02-19T05:11:49.581Z,22.50
2023-02-19T05:14:05.218Z,20.10
2023-02-19T05:16:22.514Z,21.00
2023-02-19T05:18:36.272Z,28.20
2023-02-19T05:20:48.903Z,20.20
2023-02-19T05:23:02.169Z,21.90
2023-02-19T05:25:15.334Z,20.00
2023-02-19T05:27:28.929Z,17.20
2023-02-19T05:29:41.500Z,18.20
2023-02-19T05:31:54.114Z,18.30
2023-02-19T05:34:07.653Z,23.20
2023-02-19T05:36:22.680Z,21.70
2023-02-19T05:38:35.556Z,21.90
2023-02-19T05:40:49.306Z,19.60
2023-02-19T05:43:01.807Z,21.30
2023-02-19T05:45:15.544Z,16.10
2023-02-19T05:47:29.142Z,17.90
2023-02-19T05:49:41.638Z,22.50
2023-02-19T05:51:55.999Z,21.20
2023-02-19T05:54:09.371Z,19.60
2023-02-19T05:56:34.492Z,21.20
2023-02-19T05:58:48.502Z,19.30
2023-02-19T06:01:02.479Z,23.70
2023-02-19T06:03:16.367Z,22.10
2023-02-19T06:05:29.339Z,17.20
2023-02-19T06:07:43.829Z,14.60
2023-02-19T06:10:00.806Z,14.80
2023-02-19T06:12:14.599Z,19.30
2023-02-19T06:14:29.649Z,17.20
2023-02-19T06:16:43.971Z,18.60
2023-02-19T06:18:57.915Z,18.30
2023-02-19T06:21:13.261Z,17.50
2023-02-19T06:23:26.388Z,19.60
2023-02-19T06:25:39.033Z,13.30
2023-02-19T06:27:52.134Z,25.30
2023-02-19T06:30:06.302Z,15.40
2023-02-19T06:32:19.293Z,14.70
2023-02-19T06:34:33.787Z,18.30
2023-02-19T06:36:47.795Z,22.50
2023-02-19T06:39:06.669Z,22.20
2023-02-19T06:41:21.333Z,16.40
2023-02-19T06:43:35.340Z,17.00
2023-02-19T06:45:49.085Z,20.50
2023-02-19T06:48:02.346Z,17.00
2023-02-19T06:50:16.605Z,23.00
2023-02-19T06:52:30.144Z,18.20
2023-02-19T06:54:43.416Z,11.90
2023-02-19T06:57:00.157Z,21.50
2023-02-19T06:59:17.896Z,20.80
2023-02-19T07:01:31.884Z,19.60
2023-02-19T07:03:46.204Z,16.20
2023-02-19T07:06:05.433Z,18.90
2023-02-19T07:08:19.792Z,16.40
2023-02-19T07:10:33.771Z,29.00
2023-02-19T07:12:47.130Z,28.60
2023-02-19T07:15:01.603Z,18.80
2023-02-19T07:17:15.002Z,16.90
2023-02-19T07:19:27.912Z,17.30
2023-02-19T07:21:40.460Z,23.30
2023-02-19T07:23:54.858Z,15.80
2023-02-19T07:26:08.814Z,20.60
2023-02-19T07:28:22.096Z,18.80
2023-02-19T07:30:38.588Z,19.40
2023-02-19T07:32:51.305Z,19.70
2023-02-19T07:35:04.385Z,15.60
2023-02-19T07:37:17.805Z,26.80
2023-02-19T07:39:31.584Z,28.60
2023-02-19T07:41:45.485Z,17.60
2023-02-19T07:44:10.839Z,22.30
2023-02-19T07:46:24.110Z,17.60
2023-02-19T07:48:38.167Z,13.10
2023-02-19T07:50:57.220Z,17.40
2023-02-19T07:53:10.958Z,18.80
2023-02-19T07:55:24.255Z,25.20
2023-02-19T07:57:37.101Z,24.40
2023-02-19T07:59:50.833Z,21.70
2023-02-19T08:02:20.578Z,20.70
2023-02-19T08:04:33.228Z,13.70
2023-02-19T08:06:46.690Z,16.00
2023-02-19T08:08:59.578Z,25.10
2023-02-19T08:11:30.486Z,22.30
2023-02-19T08:13:44.095Z,12.10
2023-02-19T08:16:16.076Z,25.10
2023-02-19T08:18:32.051Z,17.70
2023-02-19T08:20:44.634Z,16.70
2023-02-19T08:22:57.230Z,12.90
2023-02-19T08:25:11.288Z,15.70
2023-02-19T08:27:23.987Z,20.10
2023-02-19T08:29:36.943Z,17.30
2023-02-19T08:31:50.107Z,15.40
2023-02-19T08:34:03.880Z,16.40
2023-02-19T08:36:17.997Z,18.80
2023-02-19T08:38:31.172Z,15.40
2023-02-19T08:40:44.671Z,12.10
2023-02-19T08:42:57.399Z,15.80
2023-02-19T08:45:11.230Z,11.80
2023-02-19T08:47:24.003Z,14.90
2023-02-19T08:49:36.638Z,15.70
2023-02-19T08:51:49.150Z,20.80
2023-02-19T08:54:01.891Z,16.30
2023-02-19T08:56:15.992Z,18.60
2023-02-19T08:58:29.097Z,19.30
2023-02-19T09:00:41.903Z,18.20
2023-02-19T09:02:54.876Z,15.40
2023-02-19T09:05:09.356Z,20.00
2023-02-19T09:07:24.229Z,20.80
2023-02-19T09:09:39.899Z,17.10
2023-02-19T09:11:53.083Z,13.70
2023-02-19T09:14:08.522Z,17.40
2023-02-19T09:16:22.217Z,13.00
2023-02-19T09:18:36.837Z,16.70
2023-02-19T09:20:50.542Z,15.40
2023-02-19T09:23:09.179Z,13.40
2023-02-19T09:25:22.758Z,12.40
2023-02-19T09:27:36.193Z,17.20
2023-02-19T09:29:49.676Z,17.00
2023-02-19T09:32:05.316Z,10.90
2023-02-19T09:34:18.961Z,17.00
2023-02-19T09:36:32.081Z,17.00
2023-02-19T09:38:46.225Z,18.80
2023-02-19T09:40:59.630Z,11.80
2023-02-19T09:43:20.454Z,9.50
2023-02-19T09:45:34.362Z,10.70
2023-02-19T09:47:50.270Z,20.00
2023-02-19T09:50:08.698Z,18.40
2023-02-19T09:52:29.437Z,21.70
2023-02-19T09:54:43.991Z,15.20
2023-02-19T09:56:58.248Z,15.50
2023-02-19T09:59:21.880Z,20.90
2023-02-19T10:01:43.164Z,11.50
2023-02-19T10:03:57.300Z,14.00
2023-02-19T10:06:18.002Z,23.10
2023-02-19T10:08:35.117Z,15.30
2023-02-19T10:10:49.868Z,13.50
2023-02-19T10:13:14.909Z,19.10
2023-02-19T10:15:33.173Z,25.00
2023-02-19T10:17:46.721Z,17.90
2023-02-19T10:19:59.997Z,16.00
2023-02-19T10:22:15.192Z,15.00
2023-02-19T10:24:33.464Z,19.90
2023-02-19T10:26:46.676Z,15.80
2023-02-19T10:29:00.401Z,13.90
2023-02-19T10:31:22.416Z,17.60
2023-02-19T10:33:51.084Z,15.70
2023-02-19T10:36:06.797Z,20.40
2023-02-19T10:38:24.757Z,19.30
2023-02-19T10:40:39.146Z,20.80
2023-02-19T10:42:56.698Z,17.50
2023-02-19T10:45:20.240Z,16.10
2023-02-19T10:47:36.923Z,21.50
2023-02-19T10:49:51.712Z,21.40
2023-02-19T10:52:18.858Z,23.40
2023-02-19T10:54:36.669Z,15.30
2023-02-19T10:56:50.347Z,14.60
2023-02-19T10:59:31.283Z,17.60
2023-02-19T11:01:56.255Z,20.60
2023-02-19T11:04:23.746Z,21.20
2023-02-19T11:06:36.968Z,17.20
2023-02-19T11:09:02.173Z,14.60
2023-02-19T11:11:24.481Z,17.30
2023-02-19T11:13:39.164Z,16.40
2023-02-19T11:15:58.401Z,19.50
2023-02-19T11:18:24.823Z,18.10
2023-02-19T11:20:38.794Z,14.70
2023-02-19T11:22:52.708Z,13.00
2023-02-19T11:25:11.482Z,20.60
2023-02-19T11:27:28.469Z,17.50
2023-02-19T11:29:45.601Z,25.20
2023-02-19T11:32:00.207Z,19.20
2023-02-19T11:34:32.358Z,17.40
2023-02-19T11:36:46.767Z,16.20
2023-02-19T11:39:01.201Z,15.10
2023-02-19T11:41:26.159Z,15.70
2023-02-19T11:43:57.298Z,13.70
2023-02-19T11:46:17.150Z,14.20
2023-02-19T11:48:45.225Z,13.40
2023-02-19T11:51:08.837Z,14.80
2023-02-19T11:53:27.369Z,17.40
2023-02-19T11:55:55.577Z,22.60
2023-02-19T11:58:21.150Z,16.70
2023-02-19T12:00:34.652Z,22.40
2023-02-19T12:03:12.584Z,13.60
2023-02-19T12:05:39.024Z,24.60
2023-02-19T12:08:22.028Z,18.70
2023-02-19T12:10:48.331Z,23.70
2023-02-19T12:13:14.587Z,24.10
2023-02-19T12:16:02.494Z,15.50
2023-02-19T12:18:56.661Z,23.80
2023-02-19T12:21:23.883Z,24.50
2023-02-19T12:23:57.706Z,23.10
2023-02-19T12:26:21.363Z,20.70
2023-02-19T12:29:03.135Z,20.20
2023-02-19T12:31:37.720Z,19.10
2023-02-19T12:34:11.901Z,21.40
2023-02-19T12:36:31.614Z,23.60
2023-02-19T12:38:54.148Z,22.60
2023-02-19T12:43:29.424Z,21.50
2023-02-19T12:45:47.906Z,21.70
2023-02-19T12:48:09.472Z,21.60
2023-02-19T12:50:27.492Z,27.50
2023-02-19T12:52:44.753Z,23.40
2023-02-19T12:55:02.058Z,22.20
2023-02-19T12:57:18.901Z,17.80
2023-02-19T12:59:38.482Z,17.40
2023-02-19T13:01:59.900Z,19.70
2023-02-19T13:04:31.226Z,15.40
2023-02-19T13:06:48.714Z,12.30
2023-02-19T13:09:07.855Z,14.10
2023-02-19T13:11:26.630Z,15.60
2023-02-19T13:13:44.914Z,8.00
2023-02-19T13:15:59.837Z,13.90
2023-02-19T13:18:22.914Z,14.10
2023-02-19T13:20:39.005Z,16.90
2023-02-19T13:23:15.764Z,17.30
2023-02-19T13:25:40.156Z,21.00
2023-02-19T13:28:16.347Z,15.40
2023-02-19T13:30:51.211Z,12.60
2023-02-19T13:33:17.892Z,19.00
2023-02-19T13:35:56.020Z,15.80
2023-02-19T13:38:13.483Z,19.70
2023-02-19T13:40:36.149Z,16.00
2023-02-19T13:42:57.818Z,19.70
2023-02-19T13:45:24.863Z,24.90
2023-02-19T13:48:02.399Z,20.60
2023-02-19T13:50:24.204Z,21.80
2023-02-19T13:52:45.432Z,17.70
2023-02-19T13:55:18.411Z,21.50
2023-02-19T13:57:35.308Z,20.40
2023-02-19T13:59:49.592Z,16.80
2023-02-19T14:02:28.541Z,32.60
2023-02-19T14:04:54.058Z,16.50
2023-02-19T14:07:48.135Z,29.60
2023-02-19T14:10:02.905Z,18.90
2023-02-19T14:12:33.897Z,19.50
2023-02-19T14:14:47.389Z,26.50
2023-02-19T14:17:05.991Z,21.10
2023-02-19T14:19:41.823Z,21.10
2023-02-19T14:21:55.616Z,38.20
2023-02-19T14:24:13.114Z,18.40
2023-02-19T14:26:25.962Z,25.20
2023-02-19T14:28:47.742Z,18.70
2023-02-19T14:33:18.729Z,26.10
2023-02-19T14:35:38.098Z,33.60
2023-02-19T14:37:51.334Z,16.60
2023-02-19T14:40:05.706Z,24.90
2023-02-19T14:42:26.128Z,17.90
2023-02-19T14:44:50.280Z,20.50
2023-02-19T14:47:07.582Z,21.50
2023-02-19T14:49:24.498Z,18.70
2023-02-19T14:51:42.482Z,23.90
2023-02-19T14:53:56.820Z,19.10
2023-02-19T14:56:19.717Z,30.60
2023-02-19T14:58:37.999Z,27.20
2023-02-19T15:00:51.987Z,24.60
2023-02-19T15:03:06.892Z,18.60
2023-02-19T15:05:26.953Z,21.40
2023-02-19T15:07:40.391Z,22.20
2023-02-19T15:09:58.063Z,27.70
2023-02-19T15:12:17.296Z,23.10
2023-02-19T15:14:33.496Z,27.80
2023-02-19T15:16:46.626Z,19.40
2023-02-19T15:19:03.995Z,21.20
2023-02-19T15:21:29.604Z,23.40
2023-02-19T15:23:45.908Z,22.90
2023-02-19T15:26:00.000Z,16.30
2023-02-19T15:28:35.487Z,16.50
2023-02-19T15:30:49.362Z,27.60
2023-02-19T15:33:07.001Z,17.60
2023-02-19T15:35:28.473Z,15.80
2023-02-19T15:37:43.656Z,26.50
2023-02-19T15:39:58.685Z,18.20
2023-02-19T15:42:13.919Z,19.30
2023-02-19T15:44:40.752Z,31.00
2023-02-19T15:46:53.884Z,22.50
2023-02-19T15:49:11.431Z,30.40
2023-02-19T15:51:31.040Z,28.80
2023-02-19T15:53:48.780Z,25.20
2023-02-19T15:56:07.142Z,17.70
2023-02-19T15:58:26.061Z,20.00
2023-02-19T16:00:44.954Z,15.60
2023-02-19T16:02:57.886Z,21.80
2023-02-19T16:05:19.110Z,21.90
2023-02-19T16:07:34.826Z,21.20
2023-02-19T16:09:48.397Z,18.40
2023-02-19T16:12:03.319Z,23.60
2023-02-19T16:14:36.186Z,19.90
2023-02-19T16:16:52.502Z,26.20
2023-02-19T16:19:07.050Z,21.50
2023-02-19T16:21:24.900Z,24.30
2023-02-19T16:23:38.620Z,22.50
2023-02-19T16:25:52.788Z,24.00
2023-02-19T16:28:12.781Z,30.60
2023-02-19T16:30:35.135Z,23.00
2023-02-19T16:32:48.138Z,25.00
2023-02-19T16:35:02.094Z,25.90
2023-02-19T16:37:41.182Z,17.30
2023-02-19T16:40:16.746Z,27.00
2023-02-19T16:42:30.415Z,17.70
2023-02-19T16:44:44.191Z,32.80
2023-02-19T16:47:00.347Z,27.10
2023-02-19T16:49:15.938Z,20.70
2023-02-19T16:51:31.510Z,28.60
2023-02-19T16:53:45.012Z,28.20
2023-02-19T16:55:58.493Z,29.80
2023-02-19T16:58:12.365Z,23.10
2023-02-19T17:00:28.373Z,25.40
2023-02-19T17:02:42.691Z,24.40
2023-02-19T17:04:57.468Z,35.30
2023-02-19T17:07:12.554Z,24.90
2023-02-19T17:09:26.403Z,20.40
2023-02-19T17:11:40.718Z,26.70
2023-02-19T17:13:54.963Z,22.50
2023-02-19T17:16:08.960Z,32.80
2023-02-19T17:18:23.079Z,27.10
2023-02-19T17:20:38.893Z,20.20
2023-02-19T17:22:52.184Z,27.10
2023-02-19T17:25:07.466Z,41.00
2023-02-19T17:27:21.347Z,31.90
2023-02-19T17:29:36.301Z,40.50
2023-02-19T17:31:49.674Z,33.00
2023-02-19T17:34:06.113Z,29.50
2023-02-19T17:36:23.250Z,32.80
2023-02-19T17:38:36.020Z,26.90
2023-02-19T17:40:49.357Z,32.00
2023-02-19T17:43:03.412Z,32.40
2023-02-19T17:45:18.326Z,34.60
2023-02-19T17:47:33.131Z,37.80
2023-02-19T17:49:48.984Z,38.70
2023-02-19T17:52:02.483Z,36.00
2023-02-19T17:54:15.633Z,40.00
2023-02-19T17:56:30.587Z,33.20
2023-02-19T17:58:44.259Z,22.90
2023-02-19T18:00:57.915Z,24.40
2023-02-19T18:03:12.211Z,27.20
2023-02-19T18:05:27.841Z,31.80
2023-02-19T18:07:42.191Z,33.30
2023-02-19T18:09:57.113Z,30.60
2023-02-19T18:12:12.297Z,32.20
2023-02-19T18:14:26.574Z,35.20
2023-02-19T18:16:39.783Z,33.70
2023-02-19T18:18:52.995Z,35.80
2023-02-19T18:21:06.095Z,31.00
2023-02-19T18:23:22.411Z,32.20
2023-02-19T18:25:37.592Z,26.00
2023-02-19T18:27:50.561Z,31.80
2023-02-19T18:30:04.238Z,33.40
2023-02-19T18:32:17.874Z,30.70
2023-02-19T18:34:31.195Z,33.60
2023-02-19T18:36:47.582Z,45.50
2023-02-19T18:39:00.474Z,33.40
2023-02-19T18:41:20.026Z,26.90
2023-02-19T18:43:34.013Z,33.40
2023-02-19T18:45:48.084Z,44.30
2023-02-19T18:48:02.133Z,38.50
2023-02-19T18:50:17.589Z,27.10
2023-02-19T18:52:32.030Z,26.60
2023-02-19T18:54:46.174Z,34.40
2023-02-19T18:57:01.684Z,36.20
2023-02-19T18:59:15.075Z,34.90
2023-02-19T19:01:30.126Z,34.70
2023-02-19T19:03:43.257Z,31.50
2023-02-19T19:05:57.303Z,31.30
2023-02-19T19:08:11.464Z,26.00
2023-02-19T19:10:25.732Z,28.00
2023-02-19T19:12:39.581Z,25.10
2023-02-19T19:14:53.666Z,32.30
2023-02-19T19:17:07.484Z,28.30
2023-02-19T19:19:20.788Z,25.90
2023-02-19T19:21:34.005Z,30.00
2023-02-19T19:23:48.060Z,34.20
2023-02-19T19:26:01.982Z,30.80
2023-02-19T19:28:14.811Z,24.50
2023-02-19T19:30:28.522Z,26.60
2023-02-19T19:32:41.131Z,33.80
2023-02-19T19:34:54.533Z,22.70
2023-02-19T19:37:07.986Z,20.90
2023-02-19T19:39:21.337Z,36.20
2023-02-19T19:41:34.066Z,27.60
2023-02-19T19:43:47.439Z,29.00
2023-02-19T19:46:00.311Z,31.90
2023-02-19T19:48:14.507Z,22.50
2023-02-19T19:50:27.853Z,26.80
2023-02-19T19:52:40.494Z,30.80
2023-02-19T19:54:55.189Z,28.40
2023-02-19T19:57:07.691Z,22.90
2023-02-19T19:59:21.787Z,25.80
2023-02-19T20:01:35.187Z,23.30
2023-02-19T20:03:48.686Z,27.80
2023-02-19T20:06:02.259Z,29.20
2023-02-19T20:08:14.972Z,26.50
2023-02-19T20:10:28.370Z,29.90
2023-02-19T20:12:42.509Z,22.10
2023-02-19T20:14:55.350Z,26.90
2023-02-19T20:17:10.756Z,26.70
2023-02-19T20:19:25.414Z,38.00
2023-02-19T20:21:38.174Z,40.40
2023-02-19T20:23:51.125Z,33.70
2023-02-19T20:26:06.338Z,29.90
2023-02-19T20:28:20.548Z,33.20
2023-02-19T20:30:35.238Z,39.20
2023-02-19T20:32:47.996Z,29.80
2023-02-19T20:35:00.724Z,25.90
2023-02-19T20:37:15.023Z,24.20
2023-02-19T20:39:31.901Z,33.30
2023-02-19T20:41:47.496Z,28.80
2023-02-19T20:44:00.323Z,25.50
2023-02-19T20:46:13.348Z,22.90
2023-02-19T20:48:26.320Z,19.80
2023-02-19T20:50:40.193Z,27.60
2023-02-19T20:52:54.363Z,27.00
2023-02-19T20:55:07.440Z,27.00
2023-02-19T20:57:20.983Z,29.40
2023-02-19T20:59:37.650Z,27.70
2023-02-19T21:01:51.862Z,30.80
2023-02-19T21:04:04.961Z,31.60
2023-02-19T21:06:18.083Z,30.30
2023-02-19T21:08:31.512Z,29.50
2023-02-19T21:10:45.404Z,21.60
2023-02-19T21:12:58.699Z,29.60
2023-02-19T21:15:13.099Z,32.90
2023-02-19T21:17:26.385Z,24.80
2023-02-19T21:19:39.822Z,24.50
2023-02-19T21:21:53.463Z,26.30
2023-02-19T21:24:08.385Z,28.80
2023-02-19T21:26:22.120Z,21.30
2023-02-19T21:28:34.660Z,32.50
2023-02-19T21:30:49.031Z,24.30
2023-02-19T21:33:01.674Z,21.10
2023-02-19T21:35:14.738Z,29.10
2023-02-19T21:37:27.554Z,22.70
2023-02-19T21:39:44.054Z,27.40
2023-02-19T21:41:56.805Z,29.10
2023-02-19T21:44:10.326Z,27.50
2023-02-19T21:46:26.114Z,32.40
2023-02-19T21:48:38.662Z,29.90
2023-02-19T21:50:51.554Z,27.70
2023-02-19T21:53:06.591Z,30.20
2023-02-19T21:55:21.406Z,28.40
2023-02-19T21:57:36.518Z,28.70
2023-02-19T21:59:49.109Z,29.30
2023-02-19T22:02:01.598Z,32.30
2023-02-19T22:04:17.078Z,14.70
2023-02-19T22:06:32.820Z,33.10
2023-02-19T22:08:45.504Z,21.80
2023-02-19T22:10:58.231Z,25.00
2023-02-19T22:13:10.847Z,17.70
2023-02-19T22:15:24.932Z,21.30
2023-02-19T22:17:38.294Z,28.60
2023-02-19T22:19:50.735Z,21.00
2023-02-19T22:22:03.411Z,23.10
2023-02-19T22:24:21.892Z,30.00
2023-02-19T22:26:35.718Z,23.10
2023-02-19T22:28:48.751Z,20.10
2023-02-19T22:31:02.345Z,26.80
2023-02-19T22:33:15.713Z,29.80
2023-02-19T22:35:29.190Z,27.20
2023-02-19T22:37:42.168Z,21.00
2023-02-19T22:39:57.027Z,24.90
2023-02-19T22:42:10.872Z,29.50
2023-02-19T22:44:24.914Z,26.60
2023-02-19T22:46:38.210Z,22.30
2023-02-19T22:48:51.980Z,25.40
2023-02-19T22:51:05.976Z,24.80
2023-02-19T22:53:19.585Z,21.10
2023-02-19T22:55:34.849Z,17.30
2023-02-19T22:57:48.777Z,27.30
2023-02-19T23:00:02.073Z,24.20
2023-02-19T23:02:14.606Z,25.10
2023-02-19T23:04:28.406Z,32.30
2023-02-19T23:06:45.367Z,33.60
2023-02-19T23:08:59.397Z,22.50
2023-02-19T23:11:12.621Z,29.90
2023-02-19T23:13:25.526Z,26.00
2023-02-19T23:15:39.155Z,16.80
2023-02-19T23:17:52.967Z,29.30
2023-02-19T23:20:06.943Z,29.40
2023-02-19T23:22:21.640Z,30.00
2023-02-19T23:24:35.045Z,19.00
2023-02-19T23:26:51.315Z,28.60
2023-02-19T23:29:04.056Z,26.40
2023-02-19T23:31:18.546Z,29.60
2023-02-19T23:33:32.692Z,21.20
2023-02-19T23:35:45.326Z,24.30
2023-02-19T23:37:59.468Z,23.50
2023-02-19T23:40:13.637Z,19.60
2023-02-19T23:42:27.522Z,28.20
2023-02-19T23:44:40.118Z,20.00
2023-02-19T23:46:54.261Z,23.80
2023-02-19T23:49:09.970Z,24.40
2023-02-19T23:51:24.196Z,24.30
2023-02-19T23:53:37.816Z,24.30
2023-02-19T23:55:52.753Z,22.40
2023-02-19T23:58:06.890Z,24.50
